createdAt,value
2023-03-19T00:02:17.148Z,6.97
2023-03-19T00:04:46.172Z,6.43
2023-03-19T00:07:14.490Z,14.50
2023-03-19T00:09:42.225Z,11.75
2023-03-19T00:12:10.950Z,7.13
2023-03-19T00:14:38.611Z,7.20
2023-03-19T00:17:07.941Z,5.38
2023-03-19T00:19:35.611Z,5.30
2023-03-19T00:22:03.174Z,5.22
2023-03-19T00:24:30.933Z,5.05
2023-03-19T00:26:58.670Z,3.85
2023-03-19T00:29:26.339Z,4.38
2023-03-19T00:31:53.841Z,4.50
2023-03-19T00:34:23.031Z,4.68
2023-03-19T00:36:50.650Z,3.83
2023-03-19T00:39:18.249Z,3.60
2023-03-19T00:41:50.512Z,3.53
2023-03-19T00:44:18.937Z,3.80
2023-03-19T00:46:46.895Z,4.28
2023-03-19T00:49:14.571Z,4.57
2023-03-19T00:51:44.112Z,3.75
2023-03-19T00:54:12.867Z,3.90
2023-03-19T00:56:40.411Z,4.65
2023-03-19T00:59:08.121Z,3.85
2023-03-19T01:01:35.745Z,4.40
2023-03-19T01:04:03.700Z,3.90
2023-03-19T01:06:31.287Z,3.92
2023-03-19T01:09:00.522Z,4.22
2023-03-19T01:11:28.090Z,3.72
2023-03-19T01:13:55.631Z,3.45
2023-03-19T01:16:23.165Z,3.25
2023-03-19T01:18:50.877Z,4.25
2023-03-19T01:21:18.584Z,3.00
2023-03-19T01:23:46.251Z,4.13
2023-03-19T01:26:15.171Z,3.65
2023-03-19T01:28:43.379Z,3.30
2023-03-19T01:31:11.673Z,4.32
2023-03-19T01:33:39.358Z,3.63
2023-03-19T01:36:08.754Z,3.80
2023-03-19T01:38:36.666Z,3.58
2023-03-19T01:41:04.262Z,3.92
2023-03-19T01:43:33.679Z,3.45
2023-03-19T01:46:06.165Z,3.65
2023-03-19T01:48:40.255Z,3.50
2023-03-19T01:51:11.130Z,3.83
2023-03-19T01:53:42.684Z,3.15
2023-03-19T01:56:13.501Z,3.65
2023-03-19T01:58:45.112Z,3.33
2023-03-19T02:01:12.681Z,3.72
2023-03-19T02:03:41.386Z,2.75
2023-03-19T02:06:11.296Z,3.70
2023-03-19T02:08:40.076Z,3.13
2023-03-19T02:11:07.982Z,3.50
2023-03-19T02:13:36.565Z,3.63
2023-03-19T02:16:06.028Z,3.40
2023-03-19T02:18:33.654Z,3.60
2023-03-19T02:21:06.815Z,3.30
2023-03-19T02:23:40.798Z,3.25
2023-03-19T02:26:12.732Z,3.60
2023-03-19T02:28:43.957Z,2.78
2023-03-19T02:31:12.108Z,3.72
2023-03-19T02:33:40.075Z,3.45
2023-03-19T02:36:12.794Z,3.08
2023-03-19T02:41:11.331Z,3.28
2023-03-19T02:43:40.874Z,3.28
2023-03-19T02:46:12.909Z,3.35
2023-03-19T02:48:41.289Z,3.00
2023-03-19T02:51:09.042Z,3.20
2023-03-19T02:53:36.786Z,3.20
2023-03-19T02:56:04.312Z,3.38
2023-03-19T02:58:33.153Z,3.65
2023-03-19T03:01:00.677Z,5.68
2023-03-19T03:03:28.566Z,4.22
2023-03-19T03:05:56.372Z,3.67
2023-03-19T03:08:23.912Z,4.57
2023-03-19T03:10:51.434Z,3.72
2023-03-19T03:13:18.917Z,3.85
2023-03-19T03:15:47.825Z,4.13
2023-03-19T03:18:15.342Z,3.80
2023-03-19T03:20:43.297Z,4.70
2023-03-19T03:23:11.422Z,3.83
2023-03-19T03:25:38.922Z,4.68
2023-03-19T03:28:06.884Z,4.40
2023-03-19T03:30:34.667Z,4.20
2023-03-19T03:33:03.864Z,4.00
2023-03-19T03:35:31.541Z,4.28
2023-03-19T03:37:59.135Z,3.78
2023-03-19T03:40:27.331Z,4.38
2023-03-19T03:42:54.948Z,4.72
2023-03-19T03:45:22.463Z,3.55
2023-03-19T03:47:50.991Z,4.03
2023-03-19T03:50:19.940Z,4.53
2023-03-19T03:52:47.913Z,4.45
2023-03-19T03:55:15.616Z,4.75
2023-03-19T03:57:43.415Z,4.68
2023-03-19T04:00:12.568Z,3.85
2023-03-19T04:02:40.322Z,4.30
2023-03-19T04:05:08.551Z,5.57
2023-03-19T04:07:38.311Z,5.30
2023-03-19T04:10:07.562Z,4.45
2023-03-19T04:12:35.299Z,4.63
2023-03-19T04:15:02.886Z,4.75
2023-03-19T04:17:30.430Z,5.32
2023-03-19T04:19:57.956Z,5.55
2023-03-19T04:22:25.482Z,5.00
2023-03-19T04:24:54.343Z,4.20
2023-03-19T04:27:22.043Z,4.18
2023-03-19T04:29:49.604Z,4.97
2023-03-19T04:32:17.103Z,4.25
2023-03-19T04:34:44.653Z,4.55
2023-03-19T04:37:12.519Z,4.82
2023-03-19T04:39:40.127Z,4.90
2023-03-19T04:42:09.221Z,4.82
2023-03-19T04:44:37.651Z,4.88
2023-03-19T04:47:05.804Z,5.10
2023-03-19T04:49:33.324Z,4.55
2023-03-19T04:52:00.843Z,4.15
2023-03-19T04:54:28.408Z,4.47
2023-03-19T04:56:56.052Z,5.00
2023-03-19T04:59:24.898Z,4.82
2023-03-19T05:01:52.410Z,4.30
2023-03-19T05:04:20.063Z,5.22
2023-03-19T05:06:47.596Z,4.28
2023-03-19T05:09:15.094Z,3.70
2023-03-19T05:11:42.586Z,4.28
2023-03-19T05:14:10.080Z,3.78
2023-03-19T05:16:38.907Z,3.65
2023-03-19T05:19:06.614Z,3.70
2023-03-19T05:21:34.153Z,3.10
2023-03-19T05:24:01.624Z,4.15
2023-03-19T05:26:29.131Z,4.05
2023-03-19T05:28:56.718Z,3.38
2023-03-19T05:31:24.572Z,3.35
2023-03-19T05:33:53.460Z,3.47
2023-03-19T05:36:21.001Z,3.92
2023-03-19T05:38:48.519Z,3.03
2023-03-19T05:41:16.116Z,3.47
2023-03-19T05:43:43.665Z,3.85
2023-03-19T05:46:11.491Z,3.75
2023-03-19T05:48:39.001Z,3.90
2023-03-19T05:51:08.758Z,4.47
2023-03-19T05:53:36.262Z,3.95
2023-03-19T05:56:03.792Z,3.80
2023-03-19T05:58:31.363Z,3.92
2023-03-19T06:00:59.118Z,3.88
2023-03-19T06:03:27.172Z,4.30
2023-03-19T06:05:54.948Z,3.42
2023-03-19T06:08:23.792Z,3.70
2023-03-19T06:10:51.959Z,2.90
2023-03-19T06:13:19.486Z,2.65
2023-03-19T06:15:49.127Z,2.45
2023-03-19T06:18:16.905Z,2.47
2023-03-19T06:20:44.987Z,2.30
2023-03-19T06:23:14.542Z,2.10
2023-03-19T06:25:45.133Z,2.15
2023-03-19T06:28:12.646Z,2.20
2023-03-19T06:30:40.166Z,2.30
2023-03-19T06:33:07.923Z,2.13
2023-03-19T06:35:35.688Z,2.30
2023-03-19T06:38:03.267Z,3.10
2023-03-19T06:40:30.775Z,2.90
2023-03-19T06:43:00.367Z,2.78
2023-03-19T06:45:27.980Z,3.08
2023-03-19T06:47:56.028Z,2.75
2023-03-19T06:50:23.975Z,2.83
2023-03-19T06:52:52.008Z,2.42
2023-03-19T06:55:20.464Z,2.35
2023-03-19T06:57:49.957Z,2.47
2023-03-19T07:00:20.747Z,1.83
2023-03-19T07:02:48.365Z,2.20
2023-03-19T07:05:16.378Z,1.98
2023-03-19T07:07:43.991Z,2.20
2023-03-19T07:10:12.546Z,2.58
2023-03-19T07:12:40.073Z,2.50
2023-03-19T07:15:08.900Z,2.15
2023-03-19T07:17:37.769Z,2.20
2023-03-19T07:20:06.433Z,2.28
2023-03-19T07:22:33.975Z,2.28
2023-03-19T07:25:01.443Z,2.33
2023-03-19T07:27:28.927Z,2.55
2023-03-19T07:29:56.524Z,2.15
2023-03-19T07:32:24.335Z,2.63
2023-03-19T07:34:53.197Z,2.35
2023-03-19T07:37:22.520Z,2.42
2023-03-19T07:39:50.868Z,2.97
2023-03-19T07:42:18.376Z,2.50
2023-03-19T07:44:45.977Z,2.85
2023-03-19T07:47:28.025Z,2.30
2023-03-19T07:49:58.154Z,3.42
2023-03-19T07:52:25.999Z,2.80
2023-03-19T07:54:53.895Z,2.40
2023-03-19T07:57:21.738Z,2.67
2023-03-19T07:59:49.240Z,2.65
2023-03-19T08:02:20.363Z,2.40
2023-03-19T08:04:49.211Z,2.80
2023-03-19T08:07:18.235Z,2.28
2023-03-19T08:09:45.735Z,2.15
2023-03-19T08:12:14.252Z,2.17
2023-03-19T08:14:41.754Z,2.75
2023-03-19T08:17:09.533Z,2.63
2023-03-19T08:19:37.137Z,2.47
2023-03-19T08:22:04.769Z,3.78
2023-03-19T08:24:33.639Z,3.47
2023-03-19T08:27:01.345Z,2.72
2023-03-19T08:29:29.437Z,2.53
2023-03-19T08:31:58.673Z,2.15
2023-03-19T08:34:26.958Z,2.42
2023-03-19T08:36:54.517Z,2.13
2023-03-19T08:39:22.045Z,1.88
2023-03-19T08:41:51.347Z,2.40
2023-03-19T08:44:18.863Z,2.13
2023-03-19T08:46:46.346Z,2.05
2023-03-19T08:49:13.840Z,2.60
2023-03-19T08:51:41.354Z,2.05
2023-03-19T08:54:09.471Z,1.92
2023-03-19T08:56:36.989Z,2.00
2023-03-19T08:59:06.181Z,2.05
2023-03-19T09:01:33.992Z,2.00
2023-03-19T09:04:02.191Z,1.70
2023-03-19T09:06:29.734Z,1.90
2023-03-19T09:08:57.255Z,3.03
2023-03-19T09:11:24.846Z,3.20
2023-03-19T09:13:52.407Z,2.20
2023-03-19T09:16:21.418Z,2.25
2023-03-19T09:18:49.000Z,2.90
2023-03-19T09:21:16.576Z,2.00
2023-03-19T09:23:44.434Z,1.85
2023-03-19T09:26:12.039Z,1.92
2023-03-19T09:28:39.656Z,1.77
2023-03-19T09:31:11.601Z,1.88
2023-03-19T09:33:40.712Z,1.50
2023-03-19T09:36:09.184Z,2.25
2023-03-19T09:38:36.752Z,1.73
2023-03-19T09:41:10.739Z,1.77
2023-03-19T09:44:01.384Z,1.70
2023-03-19T09:46:37.557Z,1.90
2023-03-19T09:49:17.645Z,1.95
2023-03-19T09:51:51.313Z,1.65
2023-03-19T09:54:31.899Z,1.63
2023-03-19T09:56:59.743Z,1.30
2023-03-19T09:59:29.138Z,1.17
2023-03-19T10:02:04.999Z,1.30
2023-03-19T10:04:44.937Z,1.35
2023-03-19T10:07:35.919Z,1.10
2023-03-19T10:10:18.129Z,1.20
2023-03-19T10:12:55.085Z,1.20
2023-03-19T10:15:28.964Z,1.20
2023-03-19T10:18:02.131Z,1.50
2023-03-19T10:20:39.270Z,1.80
2023-03-19T10:23:25.186Z,1.15
2023-03-19T10:25:56.777Z,1.02
2023-03-19T10:28:24.761Z,1.07
2023-03-19T10:31:02.476Z,1.05
2023-03-19T10:33:42.652Z,1.10
2023-03-19T10:36:15.682Z,0.90
2023-03-19T10:38:44.786Z,1.13
2023-03-19T10:41:25.583Z,0.60
2023-03-19T10:43:56.087Z,1.27
2023-03-19T10:46:23.739Z,0.95
2023-03-19T10:59:37.275Z,1.02
2023-03-19T11:02:17.960Z,1.17
2023-03-19T11:04:46.489Z,0.90
2023-03-19T11:07:16.133Z,0.70
2023-03-19T11:09:47.260Z,0.50
2023-03-19T11:12:20.608Z,0.63
2023-03-19T11:14:52.127Z,0.80
2023-03-19T11:17:24.563Z,1.00
2023-03-19T11:19:53.986Z,0.75
2023-03-19T11:22:24.109Z,0.75
2023-03-19T11:24:54.283Z,0.60
2023-03-19T11:27:29.681Z,0.80
2023-03-19T11:29:59.062Z,0.75
2023-03-19T11:33:05.584Z,1.20
2023-03-19T11:35:38.462Z,1.15
2023-03-19T11:38:18.514Z,0.75
2023-03-19T11:40:52.991Z,1.52
2023-03-19T11:43:38.291Z,0.70
2023-03-19T11:46:18.319Z,1.23
2023-03-19T11:49:04.994Z,0.77
2023-03-19T11:51:42.832Z,0.85
2023-03-19T11:54:21.672Z,1.15
2023-03-19T11:56:51.251Z,1.23
2023-03-19T11:59:45.072Z,0.98
2023-03-19T12:03:09.650Z,1.00
2023-03-19T12:05:50.303Z,1.00
2023-03-19T12:08:32.383Z,0.98
2023-03-19T12:11:11.195Z,0.90
2023-03-19T12:13:51.745Z,1.55
2023-03-19T12:16:30.417Z,1.42
2023-03-19T12:19:28.535Z,1.40
2023-03-19T12:22:10.015Z,1.20
2023-03-19T12:24:54.828Z,1.10
2023-03-19T12:27:34.355Z,1.27
2023-03-19T12:30:05.042Z,1.45
2023-03-19T12:32:46.331Z,1.25
2023-03-19T12:35:19.721Z,1.17
2023-03-19T12:37:59.462Z,1.00
2023-03-19T12:40:30.842Z,1.35
2023-03-19T12:43:00.913Z,1.43
2023-03-19T12:45:33.524Z,1.50
2023-03-19T12:48:08.428Z,1.05
2023-03-19T12:50:40.902Z,1.10
2023-03-19T12:53:15.577Z,1.50
2023-03-19T12:55:49.464Z,1.63
2023-03-19T12:58:22.931Z,1.42
2023-03-19T13:00:54.278Z,1.27
2023-03-19T13:03:26.466Z,1.80
2023-03-19T13:06:02.675Z,1.40
2023-03-19T13:08:36.268Z,1.10
2023-03-19T13:11:09.763Z,1.40
2023-03-19T13:13:43.681Z,1.42
2023-03-19T13:16:22.989Z,1.13
2023-03-19T13:18:59.901Z,1.13
2023-03-19T13:21:32.246Z,1.08
2023-03-19T13:26:32.503Z,1.15
2023-03-19T13:29:09.090Z,1.25
2023-03-19T13:31:38.458Z,1.30
2023-03-19T13:34:08.855Z,1.33
2023-03-19T13:36:40.303Z,1.40
2023-03-19T13:39:16.085Z,1.60
2023-03-19T13:41:52.659Z,1.23
2023-03-19T13:44:33.795Z,1.10
2023-03-19T13:47:03.595Z,1.00
2023-03-19T13:49:35.237Z,1.25
2023-03-19T13:52:48.114Z,1.20
2023-03-19T13:55:34.491Z,1.52
2023-03-19T13:58:27.823Z,1.48
2023-03-19T14:01:00.637Z,1.25
2023-03-19T14:03:31.836Z,1.40
2023-03-19T14:06:00.551Z,1.48
2023-03-19T14:08:33.717Z,1.75
2023-03-19T14:11:03.615Z,1.90
2023-03-19T14:13:35.650Z,1.85
2023-03-19T14:16:09.057Z,1.50
2023-03-19T14:18:41.966Z,1.25
2023-03-19T14:21:13.103Z,1.40
2023-03-19T14:23:46.750Z,1.48
2023-03-19T14:26:19.196Z,1.30
2023-03-19T14:28:54.678Z,1.10
2023-03-19T14:31:34.591Z,1.33
2023-03-19T14:34:07.151Z,1.60
2023-03-19T14:36:38.169Z,1.38
2023-03-19T14:39:17.044Z,1.45
2023-03-19T14:41:47.363Z,1.50
2023-03-19T14:44:40.310Z,1.20
2023-03-19T14:47:42.036Z,1.23
2023-03-19T14:50:40.381Z,0.90
2023-03-19T14:53:15.390Z,0.70
2023-03-19T14:55:49.978Z,1.13
2023-03-19T14:58:18.240Z,0.93
2023-03-19T15:00:48.098Z,0.65
2023-03-19T15:03:23.258Z,1.00
2023-03-19T15:05:52.526Z,1.20
2023-03-19T15:08:24.120Z,1.92
2023-03-19T15:11:12.683Z,1.90
2023-03-19T15:13:52.882Z,1.70
2023-03-19T15:16:32.830Z,2.20
2023-03-19T15:19:00.930Z,1.40
2023-03-19T15:21:30.479Z,1.58
2023-03-19T15:23:58.854Z,1.80
2023-03-19T15:26:35.824Z,1.40
2023-03-19T15:29:04.546Z,1.55
2023-03-19T15:32:02.303Z,1.15
2023-03-19T15:34:32.075Z,1.60
2023-03-19T15:37:04.435Z,1.00
2023-03-19T15:39:36.485Z,1.30
2023-03-19T15:42:06.253Z,1.55
2023-03-19T15:44:38.321Z,1.38
2023-03-19T15:47:08.936Z,2.17
2023-03-19T15:49:40.733Z,1.90
2023-03-19T15:52:14.068Z,1.60
2023-03-19T15:54:42.399Z,1.45
2023-03-19T15:57:14.522Z,1.90
2023-03-19T15:59:43.050Z,1.83
2023-03-19T16:02:18.882Z,1.90
2023-03-19T16:05:14.184Z,1.60
2023-03-19T16:07:42.757Z,1.80
2023-03-19T16:10:36.953Z,1.98
2023-03-19T16:13:23.175Z,2.08
2023-03-19T16:15:56.837Z,2.00
2023-03-19T16:18:26.543Z,2.17
2023-03-19T16:21:04.118Z,2.25
2023-03-19T16:23:34.590Z,2.45
2023-03-19T16:26:21.596Z,2.13
2023-03-19T16:28:59.146Z,1.90
2023-03-19T16:31:29.834Z,2.10
2023-03-19T16:33:57.423Z,2.00
2023-03-19T16:36:29.560Z,1.80
2023-03-19T16:39:15.699Z,2.42
2023-03-19T16:41:43.274Z,2.03
2023-03-19T16:44:18.226Z,2.30
2023-03-19T16:46:46.134Z,1.85
2023-03-19T16:49:13.691Z,2.42
2023-03-19T16:51:41.367Z,2.15
2023-03-19T16:54:11.424Z,2.50
2023-03-19T16:56:38.974Z,2.55
2023-03-19T17:26:15.859Z,9.48
2023-03-19T17:28:43.410Z,2.88
2023-03-19T17:31:25.366Z,2.30
2023-03-19T17:33:54.833Z,2.05
2023-03-19T17:36:22.364Z,2.63
2023-03-19T17:38:49.851Z,3.40
2023-03-19T17:41:20.993Z,3.45
2023-03-19T17:43:49.107Z,2.55
2023-03-19T17:46:19.893Z,3.50
2023-03-19T17:48:48.495Z,3.65
2023-03-19T17:51:17.058Z,3.60
2023-03-19T17:53:49.930Z,4.40
2023-03-19T17:56:21.004Z,3.53
2023-03-19T17:58:50.357Z,3.15
2023-03-19T18:01:20.902Z,2.65
2023-03-19T18:03:49.973Z,2.83
2023-03-19T18:06:19.625Z,3.78
2023-03-19T18:08:47.343Z,4.38
2023-03-19T18:11:14.956Z,3.63
2023-03-19T18:13:44.285Z,3.50
2023-03-19T18:16:18.725Z,3.55
2023-03-19T18:18:46.866Z,3.75
2023-03-19T18:21:15.448Z,3.63
2023-03-19T18:23:43.835Z,3.10
2023-03-19T18:26:12.062Z,3.60
2023-03-19T18:28:39.974Z,3.40
2023-03-19T18:31:15.140Z,2.53
2023-03-19T18:33:46.163Z,1.90
2023-03-19T18:36:16.320Z,2.28
2023-03-19T18:38:43.875Z,2.78
2023-03-19T18:41:18.374Z,3.53
2023-03-19T18:43:47.014Z,3.65
2023-03-19T18:46:20.937Z,4.05
2023-03-19T18:48:48.495Z,4.20
2023-03-19T18:51:16.114Z,3.67
2023-03-19T18:53:43.778Z,3.75
2023-03-19T18:56:22.443Z,3.13
2023-03-19T18:58:50.389Z,2.75
2023-03-19T19:01:20.115Z,2.90
2023-03-19T19:03:48.657Z,3.42
2023-03-19T19:06:24.802Z,2.92
2023-03-19T19:08:56.039Z,3.03
2023-03-19T19:11:23.683Z,3.35
2023-03-19T19:13:56.147Z,3.72
2023-03-19T19:18:55.287Z,3.67
2023-03-19T19:21:22.836Z,3.38
2023-03-19T19:23:53.594Z,3.08
2023-03-19T19:26:37.163Z,2.55
2023-03-19T19:29:06.440Z,2.40
2023-03-19T19:31:37.340Z,2.40
2023-03-19T19:34:05.335Z,2.53
2023-03-19T19:36:34.084Z,6.55
2023-03-19T19:39:01.921Z,7.03
2023-03-19T19:41:29.929Z,6.90
2023-03-19T19:44:01.776Z,5.30
2023-03-19T19:46:29.797Z,5.15
2023-03-19T19:48:59.007Z,4.13
2023-03-19T19:51:28.856Z,3.28
2023-03-19T19:53:57.973Z,3.35
2023-03-19T19:56:27.491Z,3.20
2023-03-19T19:59:01.074Z,4.28
2023-03-19T20:01:29.193Z,4.88
2023-03-19T20:03:59.021Z,4.80
2023-03-19T20:06:26.940Z,5.45
2023-03-19T20:08:54.904Z,6.85
2023-03-19T20:11:27.425Z,6.05
2023-03-19T20:13:56.635Z,5.65
2023-03-19T20:16:26.827Z,6.03
2023-03-19T20:18:55.601Z,6.20
2023-03-19T20:21:25.071Z,4.85
2023-03-19T20:23:55.741Z,4.30
2023-03-19T20:26:25.254Z,4.38
2023-03-19T20:28:54.593Z,4.05
2023-03-19T20:31:30.057Z,3.92
2023-03-19T20:33:58.957Z,3.78
2023-03-19T20:36:27.964Z,3.38
2023-03-19T20:38:55.786Z,3.55
2023-03-19T20:41:28.838Z,3.00
2023-03-19T20:43:57.673Z,2.85
2023-03-19T20:46:25.870Z,2.85
2023-03-19T20:48:53.761Z,2.35
2023-03-19T20:51:31.633Z,2.75
2023-03-19T20:54:07.994Z,2.80
2023-03-19T20:56:38.861Z,2.42
2023-03-19T20:59:06.788Z,2.65
2023-03-19T21:01:34.817Z,2.67
2023-03-19T21:04:02.447Z,2.92
2023-03-19T21:06:51.771Z,3.00
2023-03-19T21:09:21.336Z,2.78
2023-03-19T21:11:49.228Z,2.90
2023-03-19T21:14:17.153Z,2.75
2023-03-19T21:16:44.805Z,2.72
2023-03-19T21:19:12.630Z,2.88
2023-03-19T21:21:42.911Z,3.97
2023-03-19T21:24:14.673Z,4.57
2023-03-19T21:26:43.648Z,5.40
2023-03-19T21:29:16.607Z,5.22
2023-03-19T21:31:44.395Z,4.70
2023-03-19T21:34:14.793Z,5.60
2023-03-19T21:36:43.808Z,5.00
2023-03-19T21:39:11.664Z,4.82
2023-03-19T21:41:39.353Z,5.45
2023-03-19T21:44:12.563Z,5.45
2023-03-19T21:46:40.272Z,5.55
2023-03-19T21:49:11.938Z,5.20
2023-03-19T21:51:39.656Z,5.10
2023-03-19T21:54:08.668Z,4.70
2023-03-19T21:56:39.445Z,4.38
2023-03-19T21:59:14.403Z,4.60
2023-03-19T22:01:42.437Z,4.78
2023-03-19T22:04:10.504Z,4.28
2023-03-19T22:06:38.970Z,4.60
2023-03-19T22:09:08.320Z,4.38
2023-03-19T22:11:38.114Z,5.00
2023-03-19T22:14:08.533Z,5.88
2023-03-19T22:16:36.708Z,5.63
2023-03-19T22:19:04.749Z,5.63
2023-03-19T22:21:33.887Z,5.55
2023-03-19T22:24:01.534Z,5.15
2023-03-19T22:26:33.708Z,5.07
2023-03-19T22:29:03.978Z,4.47
2023-03-19T22:31:32.014Z,5.70
2023-03-19T22:33:59.723Z,5.35
2023-03-19T22:36:27.351Z,5.82
2023-03-19T22:38:54.934Z,4.88
2023-03-19T22:41:27.930Z,4.60
2023-03-19T22:43:58.469Z,4.20
2023-03-19T22:46:27.716Z,4.65
2023-03-19T22:48:55.635Z,4.90
2023-03-19T22:51:26.312Z,5.22
2023-03-19T22:53:54.894Z,4.80
2023-03-19T22:56:23.268Z,4.40
2023-03-19T22:58:50.901Z,4.25
2023-03-19T23:01:37.439Z,3.85
2023-03-19T23:04:23.023Z,4.00
2023-03-19T23:06:51.789Z,3.78
2023-03-19T23:09:21.612Z,3.95
2023-03-19T23:11:49.435Z,4.07
2023-03-19T23:14:28.433Z,3.97
2023-03-19T23:17:00.778Z,4.10
2023-03-19T23:19:30.634Z,3.65
2023-03-19T23:21:59.542Z,3.45
2023-03-19T23:24:28.102Z,3.70
2023-03-19T23:26:57.824Z,3.15
2023-03-19T23:29:29.833Z,3.65
2023-03-19T23:31:59.502Z,3.38
2023-03-19T23:34:28.466Z,3.03
2023-03-19T23:36:56.750Z,3.28
2023-03-19T23:39:25.593Z,2.80
